createdAt,value
2023-01-08T00:01:17.775Z,11.27
2023-01-08T00:03:46.167Z,11.28
2023-01-08T00:06:17.762Z,11.27
2023-01-08T00:08:45.798Z,11.31
2023-01-08T00:11:14.488Z,11.36
2023-01-08T00:13:42.310Z,11.42
2023-01-08T00:16:16.554Z,11.44
2023-01-08T00:18:45.619Z,11.52
2023-01-08T00:21:13.750Z,11.58
2023-01-08T00:23:41.404Z,11.63
2023-01-08T00:26:10.546Z,11.63
2023-01-08T00:28:38.701Z,11.65
2023-01-08T00:31:12.532Z,11.69
2023-01-08T00:33:40.825Z,11.70
2023-01-08T00:36:18.157Z,11.76
2023-01-08T00:38:46.530Z,11.74
2023-01-08T00:41:15.927Z,11.75
2023-01-08T00:43:43.567Z,11.73
2023-01-08T00:46:11.146Z,11.72
2023-01-08T00:48:38.933Z,11.70
2023-01-08T00:51:08.614Z,11.67
2023-01-08T00:53:38.032Z,11.65
2023-01-08T00:56:09.134Z,11.62
2023-01-08T00:58:36.852Z,11.62
2023-01-08T01:01:13.560Z,11.61
2023-01-08T01:03:42.254Z,11.59
2023-01-08T01:06:12.483Z,11.56
2023-01-08T01:08:40.654Z,11.53
2023-01-08T01:11:18.711Z,11.43
2023-01-08T01:13:46.975Z,11.39
2023-01-08T01:16:14.656Z,11.41
2023-01-08T01:18:42.440Z,11.37
2023-01-08T01:21:31.347Z,11.37
2023-01-08T01:24:05.531Z,11.41
2023-01-08T01:26:34.038Z,11.32
2023-01-08T01:29:01.827Z,11.35
2023-01-08T01:31:31.913Z,11.41
2023-01-08T01:34:00.371Z,11.37
2023-01-08T01:36:28.248Z,11.38
2023-01-08T01:38:57.689Z,11.40
2023-01-08T01:41:30.275Z,11.45
2023-01-08T01:44:20.608Z,11.45
2023-01-08T01:46:49.839Z,11.54
2023-01-08T01:49:22.833Z,11.57
2023-01-08T01:51:56.497Z,11.62
2023-01-08T01:54:24.837Z,11.66
2023-01-08T01:56:52.439Z,11.65
2023-01-08T01:59:19.966Z,11.66
2023-01-08T02:01:48.371Z,11.71
2023-01-08T02:04:16.362Z,11.67
2023-01-08T02:06:53.475Z,11.67
2023-01-08T02:09:41.919Z,11.73
2023-01-08T02:12:32.675Z,11.75
2023-01-08T02:15:22.095Z,11.78
2023-01-08T02:18:08.748Z,11.80
2023-01-08T02:20:52.273Z,11.83
2023-01-08T02:23:40.208Z,11.87
2023-01-08T02:26:08.371Z,11.90
2023-01-08T02:29:05.464Z,11.91
2023-01-08T02:31:35.367Z,11.93
2023-01-08T02:34:03.464Z,11.92
2023-01-08T02:36:56.427Z,11.92
2023-01-08T02:39:46.887Z,11.95
2023-01-08T02:42:35.632Z,11.96
2023-01-08T02:45:08.789Z,11.99
2023-01-08T02:47:53.570Z,12.01
2023-01-08T02:50:51.576Z,12.02
2023-01-08T02:53:22.429Z,12.01
2023-01-08T02:55:59.454Z,12.02
2023-01-08T02:58:32.009Z,12.05
2023-01-08T03:01:07.641Z,12.04
2023-01-08T03:03:38.811Z,12.01
2023-01-08T03:06:10.382Z,11.98
2023-01-08T03:08:41.724Z,11.98
2023-01-08T03:11:12.419Z,11.98
2023-01-08T03:14:02.959Z,11.98
2023-01-08T03:16:41.236Z,11.97
2023-01-08T03:19:32.427Z,12.00
2023-01-08T03:22:03.363Z,12.05
2023-01-08T03:24:35.103Z,12.06
2023-01-08T03:27:06.893Z,12.08
2023-01-08T03:29:35.961Z,12.11
2023-01-08T03:32:08.593Z,12.15
2023-01-08T03:34:40.334Z,12.19
2023-01-08T03:37:10.073Z,12.20
2023-01-08T03:39:49.619Z,12.19
2023-01-08T03:42:20.144Z,12.18
2023-01-08T03:44:47.849Z,12.20
2023-01-08T03:47:16.327Z,12.18
2023-01-08T03:49:45.479Z,12.19
2023-01-08T03:52:29.181Z,12.18
2023-01-08T03:54:57.010Z,12.15
2023-01-08T03:57:25.288Z,12.09
2023-01-08T03:59:52.808Z,12.06
2023-01-08T04:02:20.458Z,12.06
2023-01-08T04:04:48.408Z,12.04
2023-01-08T04:07:16.191Z,12.05
2023-01-08T04:09:43.690Z,12.03
2023-01-08T04:12:11.162Z,12.04
2023-01-08T04:14:38.622Z,12.06
2023-01-08T04:17:06.098Z,12.04
2023-01-08T04:19:33.590Z,12.05
2023-01-08T04:22:01.074Z,12.05
2023-01-08T04:24:28.562Z,12.04
2023-01-08T04:26:56.044Z,12.04
2023-01-08T04:29:23.578Z,12.05
2023-01-08T04:31:51.075Z,12.06
2023-01-08T04:34:18.568Z,12.02
2023-01-08T04:36:46.042Z,12.06
2023-01-08T04:39:13.557Z,12.02
2023-01-08T04:41:41.255Z,12.04
2023-01-08T04:44:09.403Z,12.03
2023-01-08T04:46:37.698Z,12.04
2023-01-08T04:49:05.286Z,12.05
2023-01-08T04:51:32.776Z,12.05
2023-01-08T04:54:00.292Z,12.08
2023-01-08T04:56:27.814Z,12.08
2023-01-08T04:58:55.308Z,12.13
2023-01-08T05:01:26.034Z,12.16
2023-01-08T05:03:56.148Z,12.16
2023-01-08T05:06:24.177Z,12.16
2023-01-08T05:08:51.910Z,12.19
2023-01-08T05:11:19.627Z,12.20
2023-01-08T05:13:52.118Z,12.19
2023-01-08T05:16:20.321Z,12.20
2023-01-08T05:18:48.025Z,12.20
2023-01-08T05:21:15.975Z,12.19
2023-01-08T05:23:47.702Z,12.22
2023-01-08T05:26:16.841Z,12.24
2023-01-08T05:28:44.631Z,12.28
2023-01-08T05:31:12.640Z,12.29
2023-01-08T05:33:40.234Z,12.33
2023-01-08T05:36:10.249Z,12.36
2023-01-08T05:38:38.677Z,12.35
2023-01-08T05:41:06.840Z,12.34
2023-01-08T05:43:35.248Z,12.31
2023-01-08T05:46:04.095Z,12.31
2023-01-08T05:48:34.603Z,12.32
2023-01-08T05:51:03.765Z,12.34
2023-01-08T05:53:32.983Z,12.28
2023-01-08T05:56:10.168Z,12.31
2023-01-08T05:58:38.484Z,12.32
2023-01-08T06:01:13.128Z,12.31
2023-01-08T06:03:40.727Z,12.31
2023-01-08T06:06:10.565Z,12.25
2023-01-08T06:08:38.802Z,12.25
2023-01-08T06:11:08.713Z,12.27
2023-01-08T06:13:37.874Z,12.30
2023-01-08T06:16:05.875Z,12.30
2023-01-08T06:18:33.519Z,12.33
2023-01-08T06:21:02.705Z,12.34
2023-01-08T06:23:30.335Z,12.35
2023-01-08T06:26:01.341Z,12.36
2023-01-08T06:28:28.860Z,12.43
2023-01-08T06:31:03.151Z,12.44
2023-01-08T06:33:32.272Z,12.36
2023-01-08T06:36:02.540Z,12.38
2023-01-08T06:38:35.509Z,12.41
2023-01-08T06:41:08.810Z,12.42
2023-01-08T06:43:38.647Z,12.45
2023-01-08T06:46:08.697Z,12.44
2023-01-08T06:48:37.366Z,12.43
2023-01-08T06:51:05.989Z,12.42
2023-01-08T06:53:33.958Z,12.44
2023-01-08T06:56:04.304Z,12.52
2023-01-08T06:58:32.021Z,12.51
2023-01-08T07:00:59.573Z,12.56
2023-01-08T07:03:27.150Z,12.60
2023-01-08T07:05:56.238Z,12.53
2023-01-08T07:08:24.047Z,12.53
2023-01-08T07:10:51.545Z,12.57
2023-01-08T07:13:19.096Z,12.59
2023-01-08T07:15:46.613Z,12.63
2023-01-08T07:18:14.093Z,12.63
2023-01-08T07:20:41.599Z,12.54
2023-01-08T07:23:11.929Z,12.58
2023-01-08T07:25:39.683Z,12.60
2023-01-08T07:28:11.043Z,12.59
2023-01-08T07:30:38.739Z,12.63
2023-01-08T07:33:06.275Z,12.69
2023-01-08T07:35:35.431Z,12.67
2023-01-08T07:38:02.952Z,12.70
2023-01-08T07:40:31.725Z,12.72
2023-01-08T07:43:01.954Z,12.71
2023-01-08T07:45:30.681Z,12.67
2023-01-08T07:47:59.122Z,12.66
2023-01-08T07:50:27.552Z,12.65
2023-01-08T07:52:59.972Z,12.68
2023-01-08T07:55:30.042Z,12.63
2023-01-08T07:57:57.547Z,12.63
2023-01-08T08:00:25.684Z,12.64
2023-01-08T08:02:53.285Z,12.65
2023-01-08T08:05:20.940Z,12.67
2023-01-08T08:07:48.417Z,12.68
2023-01-08T08:10:15.967Z,12.69
2023-01-08T08:12:45.675Z,12.67
2023-01-08T08:15:13.201Z,12.66
2023-01-08T08:17:45.581Z,12.56
2023-01-08T08:20:13.094Z,12.58
2023-01-08T08:22:40.609Z,12.57
2023-01-08T08:25:08.557Z,12.59
2023-01-08T08:27:36.437Z,12.61
2023-01-08T08:30:05.553Z,12.54
2023-01-08T08:32:33.514Z,12.58
2023-01-08T08:35:01.376Z,12.58
2023-01-08T08:37:28.931Z,12.61
2023-01-08T08:39:56.416Z,12.64
2023-01-08T08:42:23.897Z,12.64
2023-01-08T08:44:51.386Z,12.61
2023-01-08T08:47:18.893Z,12.65
2023-01-08T08:49:46.382Z,12.67
2023-01-08T08:52:13.888Z,12.66
2023-01-08T08:54:41.590Z,12.67
2023-01-08T08:57:10.319Z,12.69
2023-01-08T08:59:37.891Z,12.66
2023-01-08T09:02:05.660Z,12.68
2023-01-08T09:04:34.417Z,12.68
2023-01-08T09:07:02.013Z,12.68
2023-01-08T09:09:29.587Z,12.69
2023-01-08T09:11:57.547Z,12.68
2023-01-08T09:14:25.156Z,12.67
2023-01-08T09:16:52.656Z,12.67
2023-01-08T09:19:20.183Z,12.67
2023-01-08T09:21:47.724Z,12.65
2023-01-08T09:24:15.252Z,12.60
2023-01-08T09:26:42.819Z,12.59
2023-01-08T09:29:10.403Z,12.61
2023-01-08T09:31:37.950Z,12.61
2023-01-08T09:34:05.979Z,12.63
2023-01-08T09:36:33.494Z,12.68
2023-01-08T09:39:01.635Z,12.72
2023-01-08T09:41:37.989Z,12.72
2023-01-08T09:44:07.011Z,12.72
2023-01-08T09:46:36.127Z,12.72
2023-01-08T09:49:12.883Z,12.76
2023-01-08T09:51:40.852Z,12.79
2023-01-08T09:54:16.084Z,12.83
2023-01-08T09:56:44.620Z,12.82
2023-01-08T09:59:17.237Z,12.80
2023-01-08T10:01:46.122Z,12.80
2023-01-08T10:04:22.602Z,12.80
2023-01-08T10:06:58.058Z,12.79
2023-01-08T10:09:32.419Z,12.82
2023-01-08T10:12:04.431Z,12.85
2023-01-08T10:14:38.108Z,12.89
2023-01-08T10:17:12.752Z,12.97
2023-01-08T10:19:40.319Z,13.05
2023-01-08T10:22:19.606Z,13.05
2023-01-08T10:24:47.496Z,13.06
2023-01-08T10:27:23.548Z,13.06
2023-01-08T10:29:52.117Z,13.07
2023-01-08T10:32:28.980Z,13.10
2023-01-08T10:34:57.627Z,13.09
2023-01-08T10:37:42.278Z,13.09
2023-01-08T10:40:30.970Z,13.12
2023-01-08T10:43:13.167Z,13.17
2023-01-08T10:45:42.496Z,13.16
2023-01-08T10:48:18.182Z,13.15
2023-01-08T10:50:45.725Z,13.13
2023-01-08T10:53:28.840Z,13.12
2023-01-08T10:56:02.198Z,13.14
2023-01-08T10:58:40.124Z,13.20
2023-01-08T11:01:15.978Z,13.24
2023-01-08T11:03:43.753Z,13.26
2023-01-08T11:06:22.516Z,13.24
2023-01-08T11:08:55.471Z,13.23
2023-01-08T11:11:23.719Z,13.28
2023-01-08T11:14:02.127Z,13.28
2023-01-08T11:16:40.538Z,13.29
2023-01-08T11:19:24.757Z,13.32
2023-01-08T11:22:04.051Z,13.38
2023-01-08T11:24:42.207Z,13.39
2023-01-08T11:27:12.736Z,13.40
2023-01-08T11:30:00.864Z,13.44
2023-01-08T11:33:05.823Z,13.48
2023-01-08T11:35:53.064Z,13.53
2023-01-08T11:38:20.552Z,13.57
2023-01-08T11:40:52.173Z,13.59
2023-01-08T11:43:59.543Z,13.62
2023-01-08T11:47:23.439Z,13.65
2023-01-08T11:50:27.490Z,13.71
2023-01-08T11:53:33.490Z,13.73
2023-01-08T11:56:10.273Z,13.75
2023-01-08T11:59:06.667Z,13.77
2023-01-08T12:02:19.087Z,13.81
2023-01-08T12:05:24.813Z,13.83
2023-01-08T12:08:44.099Z,13.83
2023-01-08T12:11:36.548Z,13.83
2023-01-08T12:14:25.422Z,13.85
2023-01-08T12:17:06.125Z,13.89
2023-01-08T12:19:48.381Z,13.90
2023-01-08T12:22:42.995Z,13.89
2023-01-08T12:25:41.450Z,13.84
2023-01-08T12:28:36.467Z,13.86
2023-01-08T12:32:02.938Z,13.85
2023-01-08T12:34:50.676Z,13.93
2023-01-08T12:37:39.132Z,13.92
2023-01-08T12:40:33.015Z,13.89
2023-01-08T12:43:07.750Z,13.82
2023-01-08T12:45:44.636Z,13.85
2023-01-08T12:48:27.948Z,13.83
2023-01-08T12:51:41.033Z,13.85
2023-01-08T12:54:20.407Z,13.91
2023-01-08T12:57:13.647Z,13.91
2023-01-08T12:59:54.135Z,13.95
2023-01-08T13:02:41.651Z,13.96
2023-01-08T13:05:36.047Z,13.99
2023-01-08T13:08:23.536Z,14.03
2023-01-08T13:10:54.421Z,14.00
2023-01-08T13:13:41.626Z,13.97
2023-01-08T13:16:11.823Z,13.98
2023-01-08T13:18:40.009Z,13.98
2023-01-08T13:21:11.629Z,14.01
2023-01-08T13:23:39.280Z,14.07
2023-01-08T13:26:07.367Z,14.10
2023-01-08T13:28:37.484Z,14.15
2023-01-08T13:31:29.322Z,14.20
2023-01-08T13:33:56.868Z,14.27
2023-01-08T13:36:29.116Z,14.25
2023-01-08T13:39:12.586Z,14.24
2023-01-08T13:41:57.652Z,14.22
2023-01-08T13:44:40.950Z,14.22
2023-01-08T13:47:42.984Z,14.12
2023-01-08T13:50:30.469Z,13.99
2023-01-08T13:53:03.406Z,13.92
2023-01-08T13:55:41.594Z,13.93
2023-01-08T13:58:26.484Z,13.91
2023-01-08T14:00:56.628Z,13.89
2023-01-08T14:03:35.674Z,13.89
2023-01-08T14:06:27.590Z,13.88
2023-01-08T14:08:58.251Z,13.95
2023-01-08T14:11:44.629Z,14.05
2023-01-08T14:14:23.406Z,14.16
2023-01-08T14:16:53.073Z,14.21
2023-01-08T14:19:25.959Z,14.18
2023-01-08T14:21:56.612Z,14.14
2023-01-08T14:24:26.028Z,14.13
2023-01-08T14:27:00.364Z,14.09
2023-01-08T14:29:30.748Z,14.05
2023-01-08T14:32:00.736Z,14.08
2023-01-08T14:34:31.797Z,14.07
2023-01-08T14:36:59.413Z,14.07
2023-01-08T14:39:39.716Z,14.02
2023-01-08T14:42:38.099Z,13.96
2023-01-08T14:45:18.694Z,13.93
2023-01-08T14:47:50.238Z,13.91
2023-01-08T14:50:42.939Z,13.90
2023-01-08T14:53:36.688Z,13.93
2023-01-08T14:56:06.622Z,13.93
2023-01-08T14:58:43.400Z,13.94
2023-01-08T15:01:22.370Z,13.91
2023-01-08T15:03:53.702Z,13.90
2023-01-08T15:06:30.801Z,13.85
2023-01-08T15:09:00.438Z,13.77
2023-01-08T15:11:31.459Z,13.73
2023-01-08T15:14:00.368Z,13.73
2023-01-08T15:16:33.687Z,13.74
2023-01-08T15:19:22.371Z,13.67
2023-01-08T15:21:55.938Z,13.66
2023-01-08T15:24:36.069Z,13.68
2023-01-08T15:27:09.904Z,13.65
2023-01-08T15:29:58.885Z,13.63
2023-01-08T15:32:39.049Z,13.65
2023-01-08T15:35:18.654Z,13.68
2023-01-08T15:37:46.170Z,13.66
2023-01-08T15:40:14.015Z,13.65
2023-01-08T15:43:00.216Z,13.64
